Time;durP1;ratioP1;P1;durP2;ratioP2;P2;SDS_P1;SDS_P2;PMS_P1;PMS_P2;Temp;Humidity;BMP_temperature;BMP_pressure;BME280_temperature;BME280_humidity;BME280_pressure;Samples;Min_cycle;Max_cycle;Signal;HPM_P1;HPM_P2
2023/09/07 00:02:24;;;;;;;10.07;6.32;;;22.50;80.10;;;;;;5055430;28;20514;-77
2023/09/07 00:04:50;;;;;;;7.57;5.78;;;22.50;80.20;;;;;;5038871;28;20026;-77
2023/09/07 00:07:15;;;;;;;7.55;6.05;;;22.40;80.20;;;;;;5056280;28;20112;-77
2023/09/07 00:09:41;;;;;;;8.05;6.18;;;22.40;80.60;;;;;;5055365;28;20100;-77
2023/09/07 00:12:06;;;;;;;6.97;5.47;;;22.30;80.50;;;;;;5055321;28;20049;-77
2023/09/07 00:14:32;;;;;;;7.82;5.43;;;22.20;80.40;;;;;;5038692;28;20029;-77
2023/09/07 00:16:58;;;;;;;6.85;6.03;;;22.20;80.60;;;;;;5054991;28;20083;-77
2023/09/07 00:19:23;;;;;;;8.40;5.95;;;22.10;80.70;;;;;;5055051;28;20026;-77
2023/09/07 00:21:51;;;;;;;7.25;5.80;;;22.00;80.80;;;;;;5055197;28;20025;-77
2023/09/07 00:24:17;;;;;;;7.70;6.05;;;22.00;81.00;;;;;;5038906;28;20013;-77
2023/09/07 00:26:44;;;;;;;9.80;6.15;;;22.00;81.10;;;;;;5056021;28;20469;-77
2023/09/07 00:29:10;;;;;;;7.50;5.60;;;22.00;81.40;;;;;;5054969;28;20089;-77
2023/09/07 00:31:36;;;;;;;6.72;5.05;;;21.90;81.50;;;;;;5055115;28;20030;-77
2023/09/07 00:34:01;;;;;;;7.88;5.32;;;21.90;81.40;;;;;;5054753;28;20030;-77
2023/09/07 00:36:27;;;;;;;6.85;5.50;;;21.80;81.40;;;;;;5055773;28;20013;-77
2023/09/07 00:38:52;;;;;;;8.57;6.15;;;21.80;81.30;;;;;;5038277;28;20057;-77
2023/09/07 00:41:18;;;;;;;13.60;5.60;;;21.80;81.20;;;;;;5054814;28;20033;-77
2023/09/07 00:43:44;;;;;;;6.63;5.30;;;21.80;81.20;;;;;;5055637;28;20034;-77
2023/09/07 00:46:10;;;;;;;9.93;6.20;;;21.80;81.00;;;;;;5055601;28;20025;-77
2023/09/07 00:48:35;;;;;;;8.02;5.93;;;21.70;81.00;;;;;;5038042;28;20041;-77
2023/09/07 00:51:01;;;;;;;7.63;5.35;;;21.70;81.30;;;;;;5054707;28;20085;-76
2023/09/07 00:53:27;;;;;;;8.50;6.20;;;21.60;81.50;;;;;;5054490;28;20042;-77
2023/09/07 00:55:55;;;;;;;8.32;5.70;;;21.50;81.60;;;;;;5055553;28;20452;-76
2023/09/07 00:58:21;;;;;;;7.05;5.18;;;21.50;81.70;;;;;;5054551;28;20400;-77
2023/09/07 01:00:47;;;;;;;6.07;5.35;;;21.40;81.90;;;;;;5054476;28;20446;-76
2023/09/07 01:03:14;;;;;;;6.63;4.70;;;21.40;82.30;;;;;;5054300;28;20101;-77
2023/09/07 01:05:54;;;;;;;6.30;5.20;;;21.40;82.00;;;;;;5054341;28;20104;-76
2023/09/07 01:08:46;;;;;;;8.20;4.93;;;21.50;81.90;;;;;;5054127;28;20025;-76
2023/09/07 01:11:26;;;;;;;6.35;4.50;;;21.50;81.30;;;;;;5047567;28;20029;-77
2023/09/07 01:13:53;;;;;;;9.00;4.90;;;21.50;81.10;;;;;;5054620;28;20033;-77
2023/09/07 01:16:20;;;;;;;5.88;4.80;;;21.40;82.00;;;;;;5054868;28;20041;-77
2023/09/07 01:18:47;;;;;;;5.72;4.68;;;21.40;81.30;;;;;;5055040;28;20030;-76
2023/09/07 01:21:13;;;;;;;7.57;4.30;;;21.40;81.60;;;;;;5054073;28;20027;-77
2023/09/07 01:23:43;;;;;;;7.18;4.90;;;21.40;81.80;;;;;;5054912;28;20025;-76
2023/09/07 01:26:09;;;;;;;6.90;5.32;;;21.40;82.00;;;;;;5054883;28;20032;-77
2023/09/07 01:28:37;;;;;;;10.35;6.32;;;21.40;82.30;;;;;;5037210;28;20033;-77
2023/09/07 01:31:02;;;;;;;9.50;6.30;;;21.40;82.50;;;;;;5054774;28;20048;-77
2023/09/07 01:33:28;;;;;;;8.43;6.07;;;21.40;82.50;;;;;;5053625;28;20026;-76
2023/09/07 01:35:54;;;;;;;7.63;5.63;;;21.40;82.60;;;;;;5037158;28;20040;-77
2023/09/07 01:38:19;;;;;;;7.60;5.93;;;21.40;82.60;;;;;;5053673;28;20052;-77
2023/09/07 01:40:45;;;;;;;7.07;5.45;;;21.30;82.50;;;;;;5053655;28;20033;-77
2023/09/07 01:43:11;;;;;;;7.20;5.13;;;21.30;82.20;;;;;;5037089;28;20029;-77
2023/09/07 01:45:37;;;;;;;9.35;6.30;;;21.20;82.20;;;;;;5053774;28;20088;-77
2023/09/07 01:48:03;;;;;;;8.63;6.40;;;21.10;82.70;;;;;;5053436;28;20037;-77
2023/09/07 01:50:29;;;;;;;9.40;5.50;;;21.10;82.90;;;;;;5053500;28;20021;-77
2023/09/07 01:52:54;;;;;;;7.60;5.28;;;21.10;82.20;;;;;;5053382;28;20033;-77
2023/09/07 01:55:20;;;;;;;7.35;4.65;;;21.10;81.90;;;;;;5053402;28;20036;-76
2023/09/07 01:57:45;;;;;;;5.72;4.47;;;21.10;81.80;;;;;;5036801;28;20039;-76
2023/09/07 02:00:12;;;;;;;6.78;4.63;;;20.90;81.90;;;;;;5053319;28;20029;-77
2023/09/07 02:02:38;;;;;;;7.00;5.20;;;20.90;82.40;;;;;;5053324;28;20025;-76
2023/09/07 02:05:04;;;;;;;7.57;5.43;;;20.90;82.60;;;;;;5054141;28;20481;-76
2023/09/07 02:07:29;;;;;;;8.23;5.22;;;20.90;82.70;;;;;;5036485;28;20057;-77
2023/09/07 02:09:55;;;;;;;9.55;5.88;;;20.90;82.90;;;;;;5054163;28;20033;-77
2023/09/07 02:12:21;;;;;;;10.20;6.20;;;20.90;83.10;;;;;;5053069;28;20025;-77
2023/09/07 02:14:46;;;;;;;8.88;6.10;;;20.90;84.00;;;;;;5052998;28;20374;-76
2023/09/07 02:17:17;;;;;;;7.60;5.40;;;20.90;83.10;;;;;;5052786;28;20071;-76
2023/09/07 02:19:43;;;;;;;8.98;5.53;;;20.90;82.50;;;;;;5037250;28;20025;-76
2023/09/07 02:22:09;;;;;;;8.32;5.22;;;20.90;82.60;;;;;;5053796;28;20022;-76
2023/09/07 02:24:35;;;;;;;9.48;5.75;;;20.90;82.80;;;;;;5052206;28;20033;-77
2023/09/07 02:27:00;;;;;;;6.75;5.22;;;20.90;82.80;;;;;;5053601;28;20045;-77
2023/09/07 02:29:26;;;;;;;9.48;5.13;;;20.80;82.60;;;;;;5052735;28;20048;-76
2023/09/07 02:31:52;;;;;;;8.07;5.60;;;20.90;82.80;;;;;;5053669;28;20022;-76
2023/09/07 02:34:18;;;;;;;8.13;5.25;;;20.80;82.90;;;;;;5052512;28;20028;-77
2023/09/07 02:36:43;;;;;;;7.13;5.00;;;20.80;83.00;;;;;;5052541;28;20026;-76
2023/09/07 02:39:11;;;;;;;8.48;5.90;;;20.80;82.90;;;;;;5053548;28;20033;-77
2023/09/07 02:41:37;;;;;;;10.77;5.97;;;20.80;83.00;;;;;;5052615;28;20028;-77
2023/09/07 02:44:02;;;;;;;11.35;6.82;;;20.80;83.20;;;;;;5052564;28;20030;-77
2023/09/07 02:46:28;;;;;;;8.40;6.35;;;20.70;83.30;;;;;;5052550;28;20037;-76
2023/09/07 02:48:57;;;;;;;11.05;8.00;;;20.70;83.50;;;;;;5053339;28;20029;-77
2023/09/07 02:51:23;;;;;;;12.07;7.55;;;20.70;83.80;;;;;;5052445;28;20018;-76
2023/09/07 02:53:49;;;;;;;10.27;6.88;;;20.70;84.10;;;;;;5052226;28;20025;-76
2023/09/07 02:56:14;;;;;;;8.23;6.18;;;20.70;84.20;;;;;;5035841;28;20025;-77
2023/09/07 02:58:40;;;;;;;10.20;6.63;;;20.70;83.80;;;;;;5053243;28;20038;-76
2023/09/07 03:01:09;;;;;;;7.65;6.03;;;20.60;83.50;;;;;;5052370;28;20025;-76
2023/09/07 03:03:35;;;;;;;8.32;5.60;;;20.60;83.50;;;;;;5053359;28;20111;-77
2023/09/07 03:06:12;;;;;;;8.48;5.60;;;20.70;84.40;;;;;;5052236;28;20030;-76
2023/09/07 03:08:39;;;;;;;13.25;6.10;;;20.70;83.60;;;;;;5053243;28;20200;-76
2023/09/07 03:11:05;;;;;;;8.82;6.32;;;20.60;83.60;;;;;;5052305;28;20022;-77
2023/09/07 03:13:31;;;;;;;8.57;5.80;;;20.60;83.50;;;;;;5053147;28;20021;-77
2023/09/07 03:15:58;;;;;;;7.15;5.10;;;20.50;83.40;;;;;;5051967;28;20378;-76
2023/09/07 03:18:23;;;;;;;11.43;5.70;;;20.40;83.00;;;;;;5035721;28;20395;-76
2023/09/07 03:20:51;;;;;;;7.25;4.60;;;20.40;82.90;;;;;;5052217;28;20050;-77
2023/09/07 03:23:16;;;;;;;10.18;5.15;;;20.20;82.90;;;;;;5052139;28;20056;-76
2023/09/07 03:25:42;;;;;;;8.00;5.45;;;20.20;83.30;;;;;;5053051;28;20037;-77
2023/09/07 03:28:07;;;;;;;8.65;5.78;;;20.20;83.50;;;;;;5035429;28;20055;-77
2023/09/07 03:30:33;;;;;;;7.75;5.80;;;20.20;83.80;;;;;;5052051;28;20029;-76
2023/09/07 03:32:59;;;;;;;9.88;5.68;;;20.20;83.90;;;;;;5052067;28;20072;-77
2023/09/07 03:35:25;;;;;;;9.60;5.65;;;20.30;83.90;;;;;;5052887;28;20013;-77
2023/09/07 03:37:50;;;;;;;7.25;5.68;;;20.20;83.70;;;;;;5039067;28;20488;-77
2023/09/07 03:40:16;;;;;;;9.23;6.07;;;20.10;83.90;;;;;;5039334;28;20044;-76
2023/09/07 03:42:43;;;;;;;9.40;5.78;;;20.00;84.10;;;;;;5055747;28;20033;-77
2023/09/07 03:45:09;;;;;;;8.95;6.50;;;19.90;84.50;;;;;;5039436;28;20025;-77
2023/09/07 03:47:35;;;;;;;8.48;6.07;;;20.00;85.00;;;;;;5056637;28;20041;-77
2023/09/07 03:50:00;;;;;;;9.70;6.25;;;20.00;85.00;;;;;;5055964;28;20033;-76
2023/09/07 03:52:27;;;;;;;8.05;6.40;;;20.10;85.00;;;;;;5055717;28;20044;-76
2023/09/07 03:54:56;;;;;;;8.32;5.88;;;20.00;84.20;;;;;;5056574;28;20033;-77
2023/09/07 03:57:23;;;;;;;8.73;6.05;;;20.00;84.20;;;;;;5055601;28;20026;-76
2023/09/07 03:59:49;;;;;;;7.60;5.72;;;19.90;84.10;;;;;;5055510;28;20030;-77
2023/09/07 04:02:15;;;;;;;10.23;5.97;;;19.90;84.10;;;;;;5038971;28;20036;-77
2023/09/07 04:04:41;;;;;;;6.05;4.65;;;19.80;84.10;;;;;;5038994;28;20048;-77
2023/09/07 04:07:07;;;;;;;6.53;4.40;;;19.80;84.30;;;;;;5038805;28;20021;-77
2023/09/07 04:09:32;;;;;;;7.25;4.80;;;19.80;84.40;;;;;;5038776;28;20025;-76
2023/09/07 04:11:58;;;;;;;8.25;5.68;;;19.90;84.70;;;;;;5055427;28;20056;-77
2023/09/07 04:14:23;;;;;;;8.38;5.93;;;19.80;84.80;;;;;;5038719;28;20048;-77
2023/09/07 04:16:50;;;;;;;10.55;6.55;;;19.80;85.10;;;;;;5054969;28;20049;-77
2023/09/07 04:19:16;;;;;;;10.43;6.80;;;19.80;85.30;;;;;;5055224;28;20026;-77
2023/09/07 04:21:41;;;;;;;11.65;7.40;;;19.80;85.70;;;;;;5055121;28;20029;-77
2023/09/07 04:24:07;;;;;;;11.63;7.28;;;19.80;85.90;;;;;;5056071;28;20037;-76
2023/09/07 04:26:33;;;;;;;11.32;7.57;;;19.80;85.90;;;;;;5055105;28;20041;-76
2023/09/07 04:28:59;;;;;;;8.23;6.35;;;19.90;86.00;;;;;;5054880;28;20034;-77
2023/09/07 04:31:27;;;;;;;10.38;6.72;;;19.90;85.90;;;;;;5055018;28;20040;-77
2023/09/07 04:33:53;;;;;;;12.85;7.22;;;19.90;85.80;;;;;;5038563;28;20045;-77
2023/09/07 04:36:19;;;;;;;13.23;7.32;;;20.00;85.80;;;;;;5055869;28;20024;-77
2023/09/07 04:38:45;;;;;;;11.25;7.32;;;20.00;85.90;;;;;;5038336;28;20026;-76
2023/09/07 04:41:12;;;;;;;14.25;7.93;;;20.00;85.90;;;;;;5054715;28;20033;-76
2023/09/07 04:43:45;;;;;;;10.32;7.28;;;20.00;85.90;;;;;;5054691;28;20093;-76
2023/09/07 04:46:12;;;;;;;11.60;7.18;;;19.90;86.00;;;;;;5055701;28;20021;-76
2023/09/07 04:48:38;;;;;;;10.07;7.68;;;19.90;86.00;;;;;;5053590;28;20025;-77
2023/09/07 04:51:06;;;;;;;13.60;7.90;;;19.90;86.00;;;;;;5054603;28;20022;-76
2023/09/07 04:53:34;;;;;;;11.48;6.93;;;19.90;86.00;;;;;;5055461;28;20021;-77
2023/09/07 04:56:01;;;;;;;11.73;7.60;;;19.90;86.00;;;;;;5054501;28;20067;-76
2023/09/07 04:58:27;;;;;;;12.13;7.57;;;19.90;86.00;;;;;;5054476;28;20025;-77
2023/09/07 05:00:52;;;;;;;10.25;7.03;;;19.90;85.90;;;;;;5054330;28;20052;-76
2023/09/07 05:03:18;;;;;;;12.10;7.32;;;19.90;85.90;;;;;;5054379;28;20063;-76
2023/09/07 05:05:44;;;;;;;11.18;7.13;;;19.90;85.90;;;;;;5054194;28;20034;-76
2023/09/07 05:08:10;;;;;;;10.35;6.90;;;19.90;85.80;;;;;;5055143;28;20033;-77
2023/09/07 05:10:36;;;;;;;11.07;7.00;;;19.90;85.70;;;;;;5037776;28;20018;-76
2023/09/07 05:13:02;;;;;;;8.93;5.88;;;19.90;85.60;;;;;;5038010;28;20025;-76
2023/09/07 05:15:28;;;;;;;9.93;7.07;;;19.80;85.10;;;;;;5054908;28;20036;-76
2023/09/07 05:17:55;;;;;;;9.50;6.53;;;19.60;85.20;;;;;;5037552;28;20037;-76
2023/09/07 05:20:21;;;;;;;12.35;7.03;;;19.60;85.70;;;;;;5055012;28;20108;-76
2023/09/07 05:22:47;;;;;;;11.32;6.78;;;19.50;85.90;;;;;;5054075;28;20030;-76
2023/09/07 05:25:12;;;;;;;10.00;6.32;;;19.50;86.30;;;;;;5054060;28;20088;-76
2023/09/07 05:27:38;;;;;;;9.35;6.70;;;19.50;86.40;;;;;;5053693;28;20049;-76
2023/09/07 05:30:05;;;;;;;9.38;6.00;;;19.50;86.40;;;;;;5053894;28;20030;-76
2023/09/07 05:32:31;;;;;;;7.60;6.05;;;19.50;86.20;;;;;;5054797;28;20081;-76
2023/09/07 05:34:57;;;;;;;7.93;6.18;;;19.50;86.30;;;;;;5054649;28;20037;-76
2023/09/07 05:37:22;;;;;;;9.90;6.40;;;19.50;86.50;;;;;;5037141;28;20036;-76
2023/09/07 05:39:48;;;;;;;9.85;6.28;;;19.40;86.50;;;;;;5054614;28;20097;-76
2023/09/07 05:42:14;;;;;;;8.50;6.10;;;19.40;86.70;;;;;;5054722;28;20093;-76
2023/09/07 05:44:40;;;;;;;11.32;7.75;;;19.40;87.00;;;;;;5053500;28;20029;-76
2023/09/07 05:47:06;;;;;;;13.45;6.90;;;19.40;87.30;;;;;;5036941;28;20030;-77
2023/09/07 05:49:31;;;;;;;9.25;6.45;;;19.50;87.40;;;;;;5053504;28;20029;-76
2023/09/07 05:51:58;;;;;;;13.13;7.22;;;19.50;87.40;;;;;;5053495;28;20029;-77
2023/09/07 05:54:23;;;;;;;11.15;6.65;;;19.50;87.60;;;;;;5053361;28;20026;-77
2023/09/07 05:56:49;;;;;;;10.20;7.50;;;19.50;87.80;;;;;;5036853;28;20105;-76
2023/09/07 05:59:15;;;;;;;10.43;6.97;;;19.50;88.10;;;;;;5054136;28;20031;-77
2023/09/07 06:01:42;;;;;;;9.85;7.00;;;19.60;88.20;;;;;;5053331;28;20388;-77
2023/09/07 06:04:07;;;;;;;10.05;6.90;;;19.60;88.30;;;;;;5053353;28;20096;-77
2023/09/07 06:06:33;;;;;;;12.60;8.15;;;19.60;88.50;;;;;;5053253;28;20084;-77
2023/09/07 06:08:59;;;;;;;12.18;7.43;;;19.70;88.70;;;;;;5052951;28;20117;-76
2023/09/07 06:11:25;;;;;;;11.98;7.35;;;19.70;88.70;;;;;;5036386;28;20026;-77
2023/09/07 06:13:51;;;;;;;14.20;7.75;;;19.70;88.80;;;;;;5053012;28;20025;-77
2023/09/07 06:16:17;;;;;;;12.32;8.30;;;19.80;88.80;;;;;;5052833;28;20048;-76
2023/09/07 06:18:43;;;;;;;13.88;7.97;;;19.80;88.90;;;;;;5053891;28;20033;-76
2023/09/07 06:21:09;;;;;;;12.23;7.85;;;19.90;89.10;;;;;;5054027;28;20049;-76
2023/09/07 06:23:35;;;;;;;12.57;8.25;;;19.90;89.20;;;;;;5052982;28;20484;-76
2023/09/07 06:26:00;;;;;;;12.55;7.88;;;19.90;89.30;;;;;;5053764;28;20029;-77
2023/09/07 06:28:27;;;;;;;12.60;7.70;;;20.00;89.30;;;;;;5052878;28;20026;-77
2023/09/07 06:30:52;;;;;;;13.00;8.05;;;20.00;89.40;;;;;;5036213;28;20018;-76
2023/09/07 06:33:18;;;;;;;13.77;8.40;;;20.00;89.40;;;;;;5052628;28;20033;-77
2023/09/07 06:35:44;;;;;;;13.43;8.45;;;20.00;89.50;;;;;;5053570;28;20032;-76
2023/09/07 06:38:09;;;;;;;13.60;8.50;;;20.00;90.10;;;;;;5036233;28;20034;-77
2023/09/07 06:40:35;;;;;;;12.18;7.85;;;20.10;89.70;;;;;;5052657;28;20060;-77
2023/09/07 06:43:05;;;;;;;12.45;8.40;;;20.10;89.80;;;;;;5052690;28;20037;-76
2023/09/07 06:45:36;;;;;;;12.85;8.60;;;20.10;89.90;;;;;;5053651;28;20033;-76
2023/09/07 06:48:03;;;;;;;12.90;8.57;;;20.10;90.00;;;;;;5053532;28;20101;-76
2023/09/07 06:50:29;;;;;;;13.75;9.02;;;20.10;90.10;;;;;;5053420;28;20033;-77
2023/09/07 06:52:54;;;;;;;11.23;8.52;;;20.20;90.20;;;;;;5052479;28;20025;-77
2023/09/07 06:55:20;;;;;;;13.05;8.38;;;20.20;90.20;;;;;;5035926;28;20029;-77
2023/09/07 06:57:46;;;;;;;14.88;9.48;;;20.30;90.30;;;;;;5052307;28;20029;-77
2023/09/07 07:00:12;;;;;;;13.00;8.48;;;20.30;90.30;;;;;;5035807;28;20036;-77
2023/09/07 07:02:38;;;;;;;14.90;9.18;;;20.40;90.40;;;;;;5052559;28;20068;-77
2023/09/07 07:05:04;;;;;;;12.40;8.30;;;20.30;90.40;;;;;;5053227;28;20028;-77
2023/09/07 07:07:30;;;;;;;12.10;8.18;;;20.40;90.40;;;;;;5053103;28;20081;-77
2023/09/07 07:09:56;;;;;;;15.52;9.13;;;20.40;90.50;;;;;;5052205;28;20027;-77
2023/09/07 07:12:21;;;;;;;12.05;8.25;;;20.50;90.50;;;;;;5051893;28;20029;-77
2023/09/07 07:14:47;;;;;;;12.80;8.25;;;20.50;90.50;;;;;;5052176;28;20089;-77
2023/09/07 07:17:12;;;;;;;12.80;8.40;;;20.60;90.60;;;;;;5052905;28;20105;-77
2023/09/07 07:19:38;;;;;;;14.57;8.50;;;20.60;90.60;;;;;;5052149;28;20130;-77
2023/09/07 07:22:04;;;;;;;14.13;8.57;;;20.70;90.50;;;;;;5052249;28;20034;-77
2023/09/07 07:24:29;;;;;;;15.00;9.38;;;20.70;90.50;;;;;;5053029;28;20025;-77
2023/09/07 07:26:55;;;;;;;12.50;8.18;;;20.80;90.60;;;;;;5052024;28;20468;-77
2023/09/07 07:29:20;;;;;;;13.43;8.65;;;20.90;90.50;;;;;;5051898;28;20037;-77
2023/09/07 07:31:46;;;;;;;12.50;8.35;;;20.90;90.50;;;;;;5052985;28;20025;-76
2023/09/07 07:34:12;;;;;;;11.82;8.55;;;21.00;90.50;;;;;;5035465;28;20025;-76
2023/09/07 07:36:38;;;;;;;14.90;9.02;;;21.00;90.40;;;;;;5052926;28;20049;-76
2023/09/07 07:39:06;;;;;;;11.63;8.23;;;21.10;90.40;;;;;;5052875;28;20049;-76
2023/09/07 07:41:32;;;;;;;14.07;7.88;;;21.10;90.50;;;;;;5035631;28;20075;-76
2023/09/07 07:43:58;;;;;;;14.35;8.25;;;21.20;90.30;;;;;;5035344;28;20500;-76
2023/09/07 07:46:24;;;;;;;15.02;8.85;;;21.30;90.30;;;;;;5051891;28;20036;-76
2023/09/07 07:48:50;;;;;;;14.77;8.18;;;21.40;90.30;;;;;;5051648;28;20028;-76
2023/09/07 07:51:16;;;;;;;11.77;7.88;;;21.50;90.20;;;;;;5051927;28;20025;-77
2023/09/07 07:53:42;;;;;;;14.45;8.00;;;21.50;90.20;;;;;;5052808;28;20057;-76
2023/09/07 07:56:18;;;;;;;13.80;8.10;;;21.60;90.10;;;;;;5051803;28;20024;-77
2023/09/07 07:58:44;;;;;;;11.90;7.82;;;21.70;90.00;;;;;;5052754;28;20026;-76
2023/09/07 08:01:18;;;;;;;11.75;7.80;;;21.70;90.00;;;;;;5035270;28;20028;-76
2023/09/07 08:03:44;;;;;;;16.00;8.02;;;21.80;89.70;;;;;;5051769;28;20032;-76
2023/09/07 08:06:11;;;;;;;13.32;8.23;;;21.90;89.90;;;;;;5051589;28;20029;-76
2023/09/07 08:08:37;;;;;;;12.15;7.38;;;22.00;89.50;;;;;;5034976;28;20036;-77
2023/09/07 08:11:05;;;;;;;12.38;7.40;;;22.10;88.80;;;;;;5052645;28;20081;-77
2023/09/07 08:13:33;;;;;;;12.35;7.68;;;22.20;88.80;;;;;;5035568;28;20036;-77
2023/09/07 08:15:59;;;;;;;12.95;7.55;;;22.30;88.10;;;;;;5051494;28;20105;-77
2023/09/07 08:18:25;;;;;;;11.90;7.47;;;22.40;87.70;;;;;;5051735;28;20033;-77
2023/09/07 08:20:50;;;;;;;12.43;7.78;;;22.50;86.60;;;;;;5035130;28;20056;-77
2023/09/07 08:23:16;;;;;;;15.43;7.97;;;22.60;85.90;;;;;;5035954;28;20041;-77
2023/09/07 08:25:46;;;;;;;13.05;7.88;;;22.70;84.70;;;;;;5038640;28;20038;-77
2023/09/07 08:28:12;;;;;;;12.32;6.97;;;22.80;84.20;;;;;;5039042;28;20092;-77
2023/09/07 08:30:37;;;;;;;10.10;7.32;;;22.90;83.70;;;;;;5054943;28;20021;-77
2023/09/07 08:33:05;;;;;;;11.13;7.07;;;22.90;83.40;;;;;;5038442;28;20092;-79
2023/09/07 08:35:35;;;;;;;13.35;7.57;;;23.00;82.90;;;;;;5038542;28;20022;-77
2023/09/07 08:38:08;;;;;;;14.25;6.72;;;23.10;83.30;;;;;;5054952;28;20025;-77
2023/09/07 08:40:34;;;;;;;10.93;6.65;;;23.20;82.40;;;;;;5055095;28;20033;-78
2023/09/07 08:43:04;;;;;;;9.43;6.43;;;23.30;81.70;;;;;;5055734;28;20057;-78
2023/09/07 08:45:33;;;;;;;8.82;6.10;;;23.40;81.00;;;;;;5054823;28;20037;-78
2023/09/07 08:47:59;;;;;;;8.80;6.05;;;23.60;80.70;;;;;;5055664;28;20032;-78
2023/09/07 08:50:25;;;;;;;11.68;6.57;;;23.60;80.40;;;;;;5055634;28;20069;-78
2023/09/07 08:52:54;;;;;;;11.52;6.05;;;23.60;79.70;;;;;;5054658;28;20025;-78
2023/09/07 08:55:21;;;;;;;9.38;6.57;;;23.70;79.80;;;;;;5055485;28;20087;-78
2023/09/07 08:57:46;;;;;;;12.20;6.85;;;23.80;79.60;;;;;;5055481;28;20025;-78
2023/09/07 09:00:16;;;;;;;9.60;6.70;;;23.90;80.90;;;;;;5037882;28;20052;-78
2023/09/07 09:02:54;;;;;;;9.88;6.40;;;23.90;79.40;;;;;;5054509;28;20034;-78
2023/09/07 09:05:20;;;;;;;8.15;6.15;;;24.00;78.70;;;;;;5054537;28;20037;-78
2023/09/07 09:07:45;;;;;;;8.98;6.30;;;24.10;79.10;;;;;;5037676;28;20029;-78
2023/09/07 09:10:11;;;;;;;7.88;5.75;;;24.20;77.30;;;;;;5054404;28;20052;-78
2023/09/07 09:12:46;;;;;;;11.85;5.90;;;24.30;77.00;;;;;;5054369;28;20033;-78
2023/09/07 09:15:11;;;;;;;11.80;6.50;;;24.40;76.80;;;;;;5055225;28;20014;-78
2023/09/07 09:17:37;;;;;;;9.38;6.05;;;24.50;76.70;;;;;;5055001;28;20072;-78
2023/09/07 09:20:05;;;;;;;10.50;5.90;;;24.50;76.70;;;;;;5037461;28;20060;-78
2023/09/07 09:22:31;;;;;;;9.10;6.30;;;24.70;77.20;;;;;;5054132;28;20093;-78
2023/09/07 09:24:56;;;;;;;7.78;5.72;;;24.70;76.40;;;;;;5054103;28;20092;-77
2023/09/07 09:27:22;;;;;;;10.00;5.30;;;24.80;76.90;;;;;;5053823;28;20030;-78
2023/09/07 09:29:50;;;;;;;6.63;5.40;;;24.90;76.40;;;;;;5037445;28;20101;-78
2023/09/07 09:32:16;;;;;;;8.57;6.00;;;25.10;75.40;;;;;;5054859;28;20018;-78
2023/09/07 09:34:44;;;;;;;7.90;5.38;;;25.10;76.30;;;;;;5036697;28;20025;-77
2023/09/07 09:37:14;;;;;;;8.02;6.65;;;25.20;75.20;;;;;;5054703;28;20029;-77
2023/09/07 09:39:41;;;;;;;7.10;5.55;;;25.30;74.20;;;;;;5053654;28;20096;-77
2023/09/07 09:42:10;;;;;;;8.25;5.55;;;25.40;74.50;;;;;;5053648;28;20036;-77
2023/09/07 09:44:37;;;;;;;8.80;5.30;;;25.50;74.40;;;;;;5053570;28;20021;-76
2023/09/07 09:47:03;;;;;;;8.25;5.20;;;25.50;73.10;;;;;;5054540;28;20026;-76
2023/09/07 09:49:29;;;;;;;6.95;5.00;;;25.60;73.10;;;;;;5054447;28;20026;-77
2023/09/07 09:51:58;;;;;;;9.27;5.25;;;25.70;73.40;;;;;;5036939;28;20037;-77
2023/09/07 09:54:26;;;;;;;7.68;4.93;;;25.70;73.10;;;;;;5054559;28;20024;-77
2023/09/07 09:56:51;;;;;;;8.68;5.60;;;25.80;73.20;;;;;;5054338;28;20028;-77
2023/09/07 09:59:17;;;;;;;10.23;5.18;;;25.80;73.60;;;;;;5054298;28;20034;-77
2023/09/07 10:01:50;;;;;;;7.75;4.97;;;25.90;73.10;;;;;;5036809;28;20101;-77
2023/09/07 10:04:18;;;;;;;8.90;4.63;;;25.90;72.50;;;;;;5053209;28;20029;-77
2023/09/07 10:06:54;;;;;;;8.07;5.20;;;26.00;71.00;;;;;;5053150;28;20021;-77
2023/09/07 10:09:20;;;;;;;9.48;5.03;;;26.00;70.40;;;;;;5053272;28;20049;-77
2023/09/07 10:11:53;;;;;;;6.60;4.55;;;26.10;71.00;;;;;;5053148;28;20036;-77
2023/09/07 10:14:19;;;;;;;6.45;4.97;;;26.20;72.50;;;;;;5053085;28;20121;-77
2023/09/07 10:16:55;;;;;;;9.45;4.88;;;26.30;71.10;;;;;;5052664;28;20492;-77
2023/09/07 10:19:25;;;;;;;7.75;4.85;;;26.40;71.20;;;;;;5054028;28;20116;-76
2023/09/07 10:21:52;;;;;;;6.13;4.50;;;26.50;72.20;;;;;;5053914;28;20104;-77
2023/09/07 10:24:29;;;;;;;7.18;4.50;;;26.60;71.90;;;;;;5052837;28;20032;-77
2023/09/07 10:27:10;;;;;;;8.23;5.28;;;26.70;70.60;;;;;;5053764;28;20025;-76
2023/09/07 10:29:44;;;;;;;7.72;5.00;;;26.70;68.30;;;;;;5036440;28;20033;-77
2023/09/07 10:32:12;;;;;;;7.30;5.88;;;26.60;70.30;;;;;;5053717;28;20049;-77
2023/09/07 10:34:39;;;;;;;7.13;4.78;;;26.80;70.00;;;;;;5053621;28;20033;-77
2023/09/07 10:37:07;;;;;;;8.55;5.10;;;26.80;71.20;;;;;;5052653;28;20032;-77
2023/09/07 10:39:33;;;;;;;8.73;5.20;;;26.90;69.60;;;;;;5036495;28;20025;-77
2023/09/07 10:41:58;;;;;;;6.88;4.35;;;27.00;70.20;;;;;;5053551;28;20018;-77
2023/09/07 10:44:28;;;;;;;7.10;4.38;;;27.10;70.20;;;;;;5052624;28;20500;-77
2023/09/07 10:46:55;;;;;;;6.45;4.70;;;27.20;70.30;;;;;;5035276;28;20041;-77
2023/09/07 10:49:20;;;;;;;6.93;5.00;;;27.20;68.90;;;;;;5052458;28;20026;-77
2023/09/07 10:51:48;;;;;;;7.25;5.30;;;27.20;68.20;;;;;;5036006;28;20080;-77
2023/09/07 10:54:15;;;;;;;7.93;5.07;;;27.20;66.50;;;;;;5053382;28;20017;-77
2023/09/07 10:56:43;;;;;;;6.63;5.45;;;27.10;66.60;;;;;;5052317;28;20088;-78
2023/09/07 10:59:08;;;;;;;6.60;4.68;;;27.20;66.20;;;;;;5052376;28;20033;-77
2023/09/07 11:01:34;;;;;;;8.48;4.95;;;27.20;67.10;;;;;;5053255;28;20033;-77
2023/09/07 11:03:59;;;;;;;7.82;5.30;;;27.20;67.40;;;;;;5052340;28;20048;-77
2023/09/07 11:06:25;;;;;;;6.45;4.95;;;27.30;66.10;;;;;;5052371;28;20030;-77
2023/09/07 11:08:51;;;;;;;9.52;5.25;;;27.30;66.00;;;;;;5052133;28;20551;-77
2023/09/07 11:11:17;;;;;;;8.25;5.40;;;27.40;66.40;;;;;;5052228;28;20496;-77
2023/09/07 11:13:42;;;;;;;7.75;4.95;;;27.50;65.30;;;;;;5052301;28;20018;-78
2023/09/07 11:16:09;;;;;;;7.63;5.50;;;27.50;66.80;;;;;;5052040;28;20076;-78
2023/09/07 11:18:36;;;;;;;6.55;4.72;;;27.60;67.30;;;;;;5052194;28;20085;-78
2023/09/07 11:21:03;;;;;;;6.70;5.00;;;27.60;66.80;;;;;;5052154;28;20029;-77
2023/09/07 11:23:35;;;;;;;8.70;4.88;;;27.80;67.00;;;;;;5035852;28;20097;-78
2023/09/07 11:26:13;;;;;;;7.03;4.68;;;27.80;67.00;;;;;;5052178;28;20037;-78
2023/09/07 11:28:39;;;;;;;7.93;5.30;;;27.80;65.30;;;;;;5053028;28;20029;-78
2023/09/07 11:31:04;;;;;;;6.13;4.57;;;27.80;66.10;;;;;;5052059;28;20018;-78
2023/09/07 11:33:33;;;;;;;6.40;4.60;;;27.90;65.50;;;;;;5051946;28;20025;-78
2023/09/07 11:35:59;;;;;;;5.93;4.63;;;27.90;63.80;;;;;;5051970;28;20044;-78
2023/09/07 11:38:35;;;;;;;6.82;4.93;;;28.00;65.00;;;;;;5052937;28;20037;-78
2023/09/07 11:41:00;;;;;;;7.20;4.78;;;28.00;63.10;;;;;;5052948;28;20408;-77
2023/09/07 11:43:26;;;;;;;6.28;4.97;;;28.10;64.40;;;;;;5052028;28;20033;-78
2023/09/07 11:45:52;;;;;;;6.15;4.85;;;28.10;66.10;;;;;;5051936;28;20034;-78
2023/09/07 11:48:17;;;;;;;6.90;4.53;;;28.10;62.80;;;;;;5052857;28;20030;-78
2023/09/07 11:50:43;;;;;;;8.70;4.40;;;28.20;63.10;;;;;;5052791;28;20033;-78
2023/09/07 11:53:09;;;;;;;6.68;4.60;;;28.10;64.00;;;;;;5051884;28;20032;-78
2023/09/07 11:55:35;;;;;;;5.00;4.28;;;28.20;63.20;;;;;;5052770;28;20029;-78
2023/09/07 11:58:01;;;;;;;6.38;4.53;;;28.30;63.90;;;;;;5053838;28;20053;-78
2023/09/07 12:00:27;;;;;;;6.10;4.18;;;28.40;64.30;;;;;;5039153;28;20067;-78
2023/09/07 12:02:53;;;;;;;8.48;4.47;;;28.50;64.00;;;;;;5055563;28;20048;-79
2023/09/07 12:05:19;;;;;;;7.40;4.53;;;28.50;62.20;;;;;;5038948;28;20041;-79
2023/09/07 12:07:45;;;;;;;7.68;4.00;;;28.60;63.10;;;;;;5055427;28;20034;-78
2023/09/07 12:10:13;;;;;;;9.45;4.38;;;28.70;60.80;;;;;;5055373;28;20014;-79
2023/09/07 12:12:40;;;;;;;5.07;3.92;;;28.70;60.30;;;;;;5056345;28;20028;-79
2023/09/07 12:15:06;;;;;;;6.57;4.35;;;28.70;59.70;;;;;;5056304;28;20060;-78
2023/09/07 12:17:32;;;;;;;10.38;5.13;;;28.70;60.20;;;;;;5056176;28;20052;-80
2023/09/07 12:19:58;;;;;;;7.97;4.72;;;28.80;60.10;;;;;;5055323;28;20052;-80
2023/09/07 12:22:24;;;;;;;9.05;3.97;;;28.80;62.10;;;;;;5056164;28;20025;-79
2023/09/07 12:24:50;;;;;;;6.30;4.35;;;28.80;60.90;;;;;;5056097;28;20044;-79
2023/09/07 12:27:16;;;;;;;5.60;4.25;;;28.90;60.70;;;;;;5056080;28;20036;-80
2023/09/07 12:29:42;;;;;;;7.47;4.03;;;28.90;60.50;;;;;;5056012;28;20077;-79
2023/09/07 12:32:08;;;;;;;6.28;4.00;;;29.00;59.30;;;;;;5056157;28;20014;-78
2023/09/07 12:34:34;;;;;;;4.38;3.67;;;29.00;60.30;;;;;;5055009;28;20022;-79
2023/09/07 12:36:59;;;;;;;4.55;3.60;;;29.00;59.20;;;;;;5054946;28;20037;-80
2023/09/07 12:39:25;;;;;;;4.90;3.80;;;29.10;59.90;;;;;;5054888;28;20034;-79
2023/09/07 12:41:51;;;;;;;5.90;3.80;;;29.10;58.80;;;;;;5054875;28;20029;-79